The Villages, Florida
Current Conditions -  °F | °C
As of 8:53 AM on Thursday 23 Oct 2014 (Local Time) from KLEE Reporting Station
Clear Clear  
Wind Chill: 62°   Ceiling: Unl
Heat Index: 62°   Visibility: 10mi
Dew Point: 54°   Wind: 7mph
Humidity: 75%   Direction: 20°NNE
Pressure: 30.03"   Gusts: NA
Location:  28.9417°N, 81.9658°W
Report Text: KLEE 231253Z 02006KT 10SM CLR 17/12 A3003 RMK AO2 SLP167 T01670122
Loading
Personal Weather Stations






























Interactive Weather Map
Tropical Storm Tracking
New forecast layout! Learn more

10-Day Weather Forecast

Advertisements
Track Severe Weather on mobile